sensor_id;sensor_type;location;lat;lon;timestamp;P1;durP1;ratioP1;P2;durP2;ratioP2
76656;SDS011;65576;47.714;9.414;2023-05-24T00:01:04;3.78;;;3.03;;
76656;SDS011;65576;47.714;9.414;2023-05-24T00:03:31;4.75;;;3.22;;
76656;SDS011;65576;47.714;9.414;2023-05-24T00:05:59;6.10;;;3.42;;
76656;SDS011;65576;47.714;9.414;2023-05-24T00:08:24;4.05;;;3.33;;
76656;SDS011;65576;47.714;9.414;2023-05-24T00:10:50;4.40;;;3.13;;
76656;SDS011;65576;47.714;9.414;2023-05-24T00:13:15;7.13;;;4.13;;
76656;SDS011;65576;47.714;9.414;2023-05-24T00:15:41;8.68;;;3.75;;
76656;SDS011;65576;47.714;9.414;2023-05-24T00:18:06;4.10;;;2.85;;
76656;SDS011;65576;47.714;9.414;2023-05-24T00:20:31;4.82;;;3.08;;
76656;SDS011;65576;47.714;9.414;2023-05-24T00:22:56;3.63;;;2.78;;
76656;SDS011;65576;47.714;9.414;2023-05-24T00:25:22;4.82;;;3.08;;
76656;SDS011;65576;47.714;9.414;2023-05-24T00:27:47;4.55;;;2.67;;
76656;SDS011;65576;47.714;9.414;2023-05-24T00:30:12;4.25;;;2.97;;
76656;SDS011;65576;47.714;9.414;2023-05-24T00:32:38;3.95;;;2.92;;
76656;SDS011;65576;47.714;9.414;2023-05-24T00:35:03;3.90;;;3.10;;
76656;SDS011;65576;47.714;9.414;2023-05-24T00:37:29;3.85;;;2.97;;
76656;SDS011;65576;47.714;9.414;2023-05-24T00:39:54;3.55;;;2.67;;
76656;SDS011;65576;47.714;9.414;2023-05-24T00:42:20;3.80;;;2.35;;
76656;SDS011;65576;47.714;9.414;2023-05-24T00:44:45;4.25;;;2.80;;
76656;SDS011;65576;47.714;9.414;2023-05-24T00:47:10;3.83;;;2.47;;
76656;SDS011;65576;47.714;9.414;2023-05-24T00:49:36;2.88;;;2.45;;
76656;SDS011;65576;47.714;9.414;2023-05-24T00:52:01;4.80;;;2.85;;
76656;SDS011;65576;47.714;9.414;2023-05-24T00:54:27;3.55;;;2.63;;
76656;SDS011;65576;47.714;9.414;2023-05-24T00:56:52;2.70;;;2.28;;
76656;SDS011;65576;47.714;9.414;2023-05-24T00:59:18;3.00;;;2.15;;
76656;SDS011;65576;47.714;9.414;2023-05-24T01:01:44;3.42;;;2.58;;
76656;SDS011;65576;47.714;9.414;2023-05-24T01:04:11;5.55;;;2.65;;
76656;SDS011;65576;47.714;9.414;2023-05-24T01:06:50;3.35;;;2.60;;
76656;SDS011;65576;47.714;9.414;2023-05-24T01:12:19;3.70;;;2.30;;
76656;SDS011;65576;47.714;9.414;2023-05-24T01:14:54;3.72;;;2.30;;
76656;SDS011;65576;47.714;9.414;2023-05-24T01:17:22;3.40;;;2.28;;
76656;SDS011;65576;47.714;9.414;2023-05-24T01:25:26;2.35;;;1.95;;
76656;SDS011;65576;47.714;9.414;2023-05-24T01:27:54;4.05;;;2.65;;
76656;SDS011;65576;47.714;9.414;2023-05-24T01:30:20;3.08;;;1.77;;
76656;SDS011;65576;47.714;9.414;2023-05-24T01:32:46;3.75;;;2.30;;
76656;SDS011;65576;47.714;9.414;2023-05-24T01:35:11;3.67;;;2.28;;
76656;SDS011;65576;47.714;9.414;2023-05-24T01:37:37;2.15;;;1.92;;
76656;SDS011;65576;47.714;9.414;2023-05-24T01:40:02;3.72;;;1.83;;
76656;SDS011;65576;47.714;9.414;2023-05-24T01:42:32;3.33;;;2.28;;
76656;SDS011;65576;47.714;9.414;2023-05-24T01:48:01;2.20;;;2.00;;
76656;SDS011;65576;47.714;9.414;2023-05-24T01:50:30;2.88;;;2.17;;
76656;SDS011;65576;47.714;9.414;2023-05-24T01:52:57;3.42;;;2.13;;
76656;SDS011;65576;47.714;9.414;2023-05-24T01:55:24;2.30;;;1.98;;
76656;SDS011;65576;47.714;9.414;2023-05-24T01:57:51;2.03;;;1.63;;
76656;SDS011;65576;47.714;9.414;2023-05-24T02:00:18;3.00;;;2.20;;
76656;SDS011;65576;47.714;9.414;2023-05-24T02:02:44;1.98;;;1.75;;
76656;SDS011;65576;47.714;9.414;2023-05-24T02:05:09;2.42;;;1.60;;
76656;SDS011;65576;47.714;9.414;2023-05-24T02:07:35;2.60;;;1.75;;
76656;SDS011;65576;47.714;9.414;2023-05-24T02:10:01;4.07;;;1.98;;
76656;SDS011;65576;47.714;9.414;2023-05-24T02:12:26;3.20;;;1.70;;
76656;SDS011;65576;47.714;9.414;2023-05-24T02:14:52;2.92;;;2.15;;
76656;SDS011;65576;47.714;9.414;2023-05-24T02:17:18;2.58;;;1.95;;
76656;SDS011;65576;47.714;9.414;2023-05-24T02:19:43;2.45;;;1.73;;
76656;SDS011;65576;47.714;9.414;2023-05-24T02:22:09;3.83;;;2.20;;
76656;SDS011;65576;47.714;9.414;2023-05-24T02:24:34;2.65;;;2.08;;
76656;SDS011;65576;47.714;9.414;2023-05-24T02:27:01;2.40;;;1.63;;
76656;SDS011;65576;47.714;9.414;2023-05-24T02:29:26;2.15;;;1.95;;
76656;SDS011;65576;47.714;9.414;2023-05-24T02:31:51;2.83;;;2.00;;
76656;SDS011;65576;47.714;9.414;2023-05-24T02:34:20;2.80;;;2.08;;
76656;SDS011;65576;47.714;9.414;2023-05-24T02:36:49;2.75;;;1.70;;
76656;SDS011;65576;47.714;9.414;2023-05-24T02:39:14;2.40;;;1.90;;
76656;SDS011;65576;47.714;9.414;2023-05-24T02:41:40;2.88;;;2.17;;
76656;SDS011;65576;47.714;9.414;2023-05-24T02:44:05;2.75;;;2.13;;
76656;SDS011;65576;47.714;9.414;2023-05-24T02:46:30;2.90;;;2.10;;
76656;SDS011;65576;47.714;9.414;2023-05-24T02:48:56;2.58;;;1.83;;
76656;SDS011;65576;47.714;9.414;2023-05-24T02:51:21;2.65;;;2.10;;
76656;SDS011;65576;47.714;9.414;2023-05-24T02:53:46;2.47;;;2.05;;
76656;SDS011;65576;47.714;9.414;2023-05-24T02:56:12;3.72;;;2.08;;
76656;SDS011;65576;47.714;9.414;2023-05-24T02:58:38;2.58;;;1.90;;
76656;SDS011;65576;47.714;9.414;2023-05-24T03:01:05;2.92;;;1.90;;
76656;SDS011;65576;47.714;9.414;2023-05-24T03:03:31;2.78;;;1.90;;
76656;SDS011;65576;47.714;9.414;2023-05-24T03:05:56;2.90;;;2.17;;
76656;SDS011;65576;47.714;9.414;2023-05-24T03:08:21;2.80;;;2.15;;
76656;SDS011;65576;47.714;9.414;2023-05-24T03:10:47;3.08;;;2.30;;
76656;SDS011;65576;47.714;9.414;2023-05-24T03:13:12;2.75;;;1.92;;
76656;SDS011;65576;47.714;9.414;2023-05-24T03:15:38;4.55;;;2.67;;
76656;SDS011;65576;47.714;9.414;2023-05-24T03:18:03;2.35;;;1.75;;
76656;SDS011;65576;47.714;9.414;2023-05-24T03:20:28;3.72;;;1.95;;
76656;SDS011;65576;47.714;9.414;2023-05-24T03:22:54;2.97;;;2.13;;
76656;SDS011;65576;47.714;9.414;2023-05-24T03:25:19;3.78;;;2.65;;
76656;SDS011;65576;47.714;9.414;2023-05-24T03:27:45;3.53;;;2.40;;
76656;SDS011;65576;47.714;9.414;2023-05-24T03:30:10;2.97;;;2.10;;
76656;SDS011;65576;47.714;9.414;2023-05-24T03:32:36;4.50;;;2.65;;
76656;SDS011;65576;47.714;9.414;2023-05-24T03:35:01;3.90;;;2.53;;
76656;SDS011;65576;47.714;9.414;2023-05-24T03:37:26;3.60;;;2.33;;
76656;SDS011;65576;47.714;9.414;2023-05-24T03:39:52;3.63;;;2.47;;
76656;SDS011;65576;47.714;9.414;2023-05-24T03:42:17;9.95;;;2.58;;
76656;SDS011;65576;47.714;9.414;2023-05-24T03:44:43;2.30;;;2.08;;
76656;SDS011;65576;47.714;9.414;2023-05-24T03:47:08;4.85;;;3.10;;
76656;SDS011;65576;47.714;9.414;2023-05-24T03:49:33;3.17;;;2.40;;
76656;SDS011;65576;47.714;9.414;2023-05-24T03:51:59;2.90;;;2.15;;
76656;SDS011;65576;47.714;9.414;2023-05-24T03:54:24;3.88;;;2.60;;
76656;SDS011;65576;47.714;9.414;2023-05-24T03:56:49;4.07;;;2.55;;
76656;SDS011;65576;47.714;9.414;2023-05-24T03:59:17;4.07;;;2.88;;
76656;SDS011;65576;47.714;9.414;2023-05-24T04:01:42;3.38;;;2.45;;
76656;SDS011;65576;47.714;9.414;2023-05-24T04:04:07;3.63;;;2.03;;
76656;SDS011;65576;47.714;9.414;2023-05-24T04:06:33;4.85;;;2.35;;
76656;SDS011;65576;47.714;9.414;2023-05-24T04:09:00;3.35;;;2.28;;
76656;SDS011;65576;47.714;9.414;2023-05-24T04:11:28;3.78;;;2.40;;
76656;SDS011;65576;47.714;9.414;2023-05-24T04:13:54;3.75;;;2.95;;
76656;SDS011;65576;47.714;9.414;2023-05-24T04:16:21;3.10;;;2.40;;
76656;SDS011;65576;47.714;9.414;2023-05-24T04:18:51;4.68;;;2.70;;
76656;SDS011;65576;47.714;9.414;2023-05-24T04:21:17;3.30;;;2.50;;
76656;SDS011;65576;47.714;9.414;2023-05-24T04:23:42;3.25;;;2.42;;
76656;SDS011;65576;47.714;9.414;2023-05-24T04:26:07;3.55;;;2.45;;
76656;SDS011;65576;47.714;9.414;2023-05-24T04:28:35;4.38;;;2.63;;
76656;SDS011;65576;47.714;9.414;2023-05-24T04:31:02;4.30;;;2.78;;
76656;SDS011;65576;47.714;9.414;2023-05-24T04:33:30;3.30;;;2.42;;
76656;SDS011;65576;47.714;9.414;2023-05-24T04:35:55;4.82;;;2.80;;
76656;SDS011;65576;47.714;9.414;2023-05-24T04:38:21;3.60;;;2.38;;
76656;SDS011;65576;47.714;9.414;2023-05-24T04:40:48;3.72;;;2.60;;
76656;SDS011;65576;47.714;9.414;2023-05-24T04:43:13;3.50;;;2.60;;
76656;SDS011;65576;47.714;9.414;2023-05-24T04:45:41;5.07;;;2.72;;
76656;SDS011;65576;47.714;9.414;2023-05-24T04:48:06;6.15;;;2.95;;
76656;SDS011;65576;47.714;9.414;2023-05-24T04:50:31;5.05;;;2.67;;
76656;SDS011;65576;47.714;9.414;2023-05-24T04:52:59;3.42;;;2.40;;
76656;SDS011;65576;47.714;9.414;2023-05-24T04:55:24;5.32;;;2.90;;
76656;SDS011;65576;47.714;9.414;2023-05-24T04:57:49;5.28;;;2.53;;
76656;SDS011;65576;47.714;9.414;2023-05-24T05:00:15;4.18;;;2.60;;
76656;SDS011;65576;47.714;9.414;2023-05-24T05:02:40;3.28;;;2.30;;
76656;SDS011;65576;47.714;9.414;2023-05-24T05:05:06;3.60;;;2.42;;
76656;SDS011;65576;47.714;9.414;2023-05-24T05:07:31;4.57;;;2.88;;
76656;SDS011;65576;47.714;9.414;2023-05-24T05:09:57;5.35;;;3.33;;
76656;SDS011;65576;47.714;9.414;2023-05-24T05:12:22;3.10;;;2.70;;
76656;SDS011;65576;47.714;9.414;2023-05-24T05:14:47;4.00;;;2.63;;
76656;SDS011;65576;47.714;9.414;2023-05-24T05:17:13;3.42;;;2.30;;
76656;SDS011;65576;47.714;9.414;2023-05-24T05:19:38;4.68;;;2.83;;
76656;SDS011;65576;47.714;9.414;2023-05-24T05:22:03;4.88;;;3.45;;
76656;SDS011;65576;47.714;9.414;2023-05-24T05:24:29;5.70;;;3.60;;
76656;SDS011;65576;47.714;9.414;2023-05-24T05:26:55;4.60;;;3.10;;
76656;SDS011;65576;47.714;9.414;2023-05-24T05:29:20;5.57;;;3.33;;
76656;SDS011;65576;47.714;9.414;2023-05-24T05:31:46;5.25;;;3.40;;
76656;SDS011;65576;47.714;9.414;2023-05-24T05:34:11;6.05;;;3.58;;
76656;SDS011;65576;47.714;9.414;2023-05-24T05:36:36;4.57;;;3.10;;
76656;SDS011;65576;47.714;9.414;2023-05-24T05:39:06;5.60;;;3.03;;
76656;SDS011;65576;47.714;9.414;2023-05-24T05:41:36;7.95;;;2.95;;
76656;SDS011;65576;47.714;9.414;2023-05-24T05:44:02;4.35;;;2.85;;
76656;SDS011;65576;47.714;9.414;2023-05-24T05:46:27;4.00;;;2.88;;
76656;SDS011;65576;47.714;9.414;2023-05-24T05:48:53;6.53;;;3.08;;
76656;SDS011;65576;47.714;9.414;2023-05-24T05:51:18;5.10;;;3.00;;
76656;SDS011;65576;47.714;9.414;2023-05-24T05:53:43;5.50;;;2.90;;
76656;SDS011;65576;47.714;9.414;2023-05-24T05:56:09;5.60;;;2.95;;
76656;SDS011;65576;47.714;9.414;2023-05-24T05:58:34;6.32;;;3.00;;
76656;SDS011;65576;47.714;9.414;2023-05-24T06:00:59;4.00;;;2.83;;
76656;SDS011;65576;47.714;9.414;2023-05-24T06:03:25;4.10;;;2.90;;
76656;SDS011;65576;47.714;9.414;2023-05-24T06:05:50;7.05;;;3.65;;
76656;SDS011;65576;47.714;9.414;2023-05-24T06:08:15;3.00;;;2.50;;
76656;SDS011;65576;47.714;9.414;2023-05-24T06:10:41;6.45;;;2.35;;
76656;SDS011;65576;47.714;9.414;2023-05-24T06:13:06;4.00;;;2.85;;
76656;SDS011;65576;47.714;9.414;2023-05-24T06:15:31;4.22;;;2.83;;
76656;SDS011;65576;47.714;9.414;2023-05-24T06:17:57;3.25;;;2.05;;
76656;SDS011;65576;47.714;9.414;2023-05-24T06:20:24;4.93;;;2.92;;
76656;SDS011;65576;47.714;9.414;2023-05-24T06:22:50;5.55;;;3.13;;
76656;SDS011;65576;47.714;9.414;2023-05-24T06:25:16;9.63;;;3.25;;
76656;SDS011;65576;47.714;9.414;2023-05-24T06:27:43;4.82;;;2.80;;
76656;SDS011;65576;47.714;9.414;2023-05-24T06:30:08;7.35;;;2.60;;
76656;SDS011;65576;47.714;9.414;2023-05-24T06:32:34;4.45;;;2.92;;
76656;SDS011;65576;47.714;9.414;2023-05-24T06:35:00;5.45;;;3.03;;
76656;SDS011;65576;47.714;9.414;2023-05-24T06:37:25;5.20;;;3.03;;
76656;SDS011;65576;47.714;9.414;2023-05-24T06:39:50;4.75;;;2.72;;
76656;SDS011;65576;47.714;9.414;2023-05-24T06:42:16;5.70;;;3.25;;
76656;SDS011;65576;47.714;9.414;2023-05-24T06:44:41;14.15;;;2.78;;
76656;SDS011;65576;47.714;9.414;2023-05-24T06:47:06;4.80;;;2.80;;
76656;SDS011;65576;47.714;9.414;2023-05-24T06:49:33;4.90;;;2.60;;
76656;SDS011;65576;47.714;9.414;2023-05-24T06:51:58;4.80;;;3.58;;
76656;SDS011;65576;47.714;9.414;2023-05-24T06:54:23;5.68;;;2.83;;
76656;SDS011;65576;47.714;9.414;2023-05-24T06:56:49;8.43;;;3.20;;
76656;SDS011;65576;47.714;9.414;2023-05-24T06:59:15;4.82;;;3.00;;
76656;SDS011;65576;47.714;9.414;2023-05-24T07:01:40;8.50;;;3.92;;
76656;SDS011;65576;47.714;9.414;2023-05-24T07:04:07;4.85;;;2.88;;
76656;SDS011;65576;47.714;9.414;2023-05-24T07:06:32;4.57;;;2.65;;
76656;SDS011;65576;47.714;9.414;2023-05-24T07:08:58;3.78;;;2.78;;
76656;SDS011;65576;47.714;9.414;2023-05-24T07:11:23;5.43;;;2.40;;
76656;SDS011;65576;47.714;9.414;2023-05-24T07:13:48;4.25;;;3.20;;
76656;SDS011;65576;47.714;9.414;2023-05-24T07:16:14;3.83;;;2.55;;
76656;SDS011;65576;47.714;9.414;2023-05-24T07:18:39;5.20;;;2.30;;
76656;SDS011;65576;47.714;9.414;2023-05-24T07:21:05;5.45;;;2.50;;
76656;SDS011;65576;47.714;9.414;2023-05-24T07:23:31;3.03;;;2.50;;
76656;SDS011;65576;47.714;9.414;2023-05-24T07:25:56;4.50;;;2.63;;
76656;SDS011;65576;47.714;9.414;2023-05-24T07:28:21;6.93;;;2.47;;
76656;SDS011;65576;47.714;9.414;2023-05-24T07:30:47;4.38;;;2.45;;
76656;SDS011;65576;47.714;9.414;2023-05-24T07:33:12;6.07;;;2.65;;
76656;SDS011;65576;47.714;9.414;2023-05-24T07:35:38;4.20;;;2.28;;
76656;SDS011;65576;47.714;9.414;2023-05-24T07:38:03;4.55;;;2.42;;
76656;SDS011;65576;47.714;9.414;2023-05-24T07:40:28;4.40;;;2.50;;
76656;SDS011;65576;47.714;9.414;2023-05-24T07:42:54;3.85;;;2.90;;
76656;SDS011;65576;47.714;9.414;2023-05-24T07:45:20;5.65;;;2.83;;
76656;SDS011;65576;47.714;9.414;2023-05-24T07:47:45;6.90;;;2.50;;
76656;SDS011;65576;47.714;9.414;2023-05-24T07:50:10;7.18;;;2.40;;
76656;SDS011;65576;47.714;9.414;2023-05-24T07:52:36;13.10;;;4.03;;
76656;SDS011;65576;47.714;9.414;2023-05-24T07:55:02;3.22;;;2.53;;
76656;SDS011;65576;47.714;9.414;2023-05-24T07:57:28;2.80;;;2.15;;
76656;SDS011;65576;47.714;9.414;2023-05-24T07:59:54;4.20;;;2.05;;
76656;SDS011;65576;47.714;9.414;2023-05-24T08:02:19;3.25;;;2.20;;
76656;SDS011;65576;47.714;9.414;2023-05-24T08:04:44;4.72;;;2.30;;
76656;SDS011;65576;47.714;9.414;2023-05-24T08:07:10;7.60;;;2.90;;
76656;SDS011;65576;47.714;9.414;2023-05-24T08:09:35;7.38;;;2.55;;
76656;SDS011;65576;47.714;9.414;2023-05-24T08:12:02;5.80;;;3.13;;
76656;SDS011;65576;47.714;9.414;2023-05-24T08:14:29;5.63;;;2.83;;
76656;SDS011;65576;47.714;9.414;2023-05-24T08:16:54;10.30;;;5.57;;
76656;SDS011;65576;47.714;9.414;2023-05-24T08:19:19;14.85;;;6.18;;
76656;SDS011;65576;47.714;9.414;2023-05-24T08:21:45;13.27;;;6.38;;
76656;SDS011;65576;47.714;9.414;2023-05-24T08:24:19;15.30;;;5.65;;
76656;SDS011;65576;47.714;9.414;2023-05-24T08:26:45;10.80;;;5.07;;
76656;SDS011;65576;47.714;9.414;2023-05-24T08:29:10;13.30;;;6.28;;
76656;SDS011;65576;47.714;9.414;2023-05-24T08:31:36;11.88;;;6.53;;
76656;SDS011;65576;47.714;9.414;2023-05-24T08:34:02;15.75;;;6.63;;
76656;SDS011;65576;47.714;9.414;2023-05-24T08:36:27;14.52;;;7.03;;
76656;SDS011;65576;47.714;9.414;2023-05-24T08:38:52;11.57;;;4.35;;
76656;SDS011;65576;47.714;9.414;2023-05-24T08:41:18;7.55;;;3.53;;
76656;SDS011;65576;47.714;9.414;2023-05-24T08:43:43;11.40;;;4.28;;
76656;SDS011;65576;47.714;9.414;2023-05-24T08:46:11;6.53;;;3.17;;
76656;SDS011;65576;47.714;9.414;2023-05-24T08:48:46;4.38;;;2.83;;
76656;SDS011;65576;47.714;9.414;2023-05-24T08:51:14;7.70;;;3.28;;
76656;SDS011;65576;47.714;9.414;2023-05-24T08:53:40;6.07;;;2.80;;
76656;SDS011;65576;47.714;9.414;2023-05-24T08:56:06;4.93;;;3.47;;
76656;SDS011;65576;47.714;9.414;2023-05-24T08:58:33;4.53;;;2.92;;
76656;SDS011;65576;47.714;9.414;2023-05-24T09:00:59;3.72;;;3.25;;
76656;SDS011;65576;47.714;9.414;2023-05-24T09:03:26;8.07;;;3.80;;
76656;SDS011;65576;47.714;9.414;2023-05-24T09:05:51;2.83;;;2.35;;
76656;SDS011;65576;47.714;9.414;2023-05-24T09:08:17;5.43;;;2.50;;
76656;SDS011;65576;47.714;9.414;2023-05-24T09:10:44;6.25;;;2.97;;
76656;SDS011;65576;47.714;9.414;2023-05-24T09:13:10;6.35;;;3.45;;
76656;SDS011;65576;47.714;9.414;2023-05-24T09:15:36;6.35;;;2.70;;
76656;SDS011;65576;47.714;9.414;2023-05-24T09:18:01;5.50;;;2.78;;
76656;SDS011;65576;47.714;9.414;2023-05-24T09:20:27;5.82;;;3.03;;
76656;SDS011;65576;47.714;9.414;2023-05-24T09:22:52;4.22;;;2.30;;
76656;SDS011;65576;47.714;9.414;2023-05-24T09:25:18;4.90;;;2.88;;
76656;SDS011;65576;47.714;9.414;2023-05-24T09:27:52;3.03;;;2.45;;
76656;SDS011;65576;47.714;9.414;2023-05-24T09:30:17;3.42;;;1.95;;
76656;SDS011;65576;47.714;9.414;2023-05-24T09:32:54;3.90;;;2.97;;
76656;SDS011;65576;47.714;9.414;2023-05-24T09:35:23;6.07;;;2.90;;
76656;SDS011;65576;47.714;9.414;2023-05-24T09:37:51;9.35;;;3.42;;
76656;SDS011;65576;47.714;9.414;2023-05-24T09:40:19;4.30;;;2.33;;
76656;SDS011;65576;47.714;9.414;2023-05-24T09:42:45;8.20;;;2.78;;
76656;SDS011;65576;47.714;9.414;2023-05-24T09:45:10;4.18;;;2.65;;
76656;SDS011;65576;47.714;9.414;2023-05-24T09:47:37;4.25;;;2.45;;
76656;SDS011;65576;47.714;9.414;2023-05-24T09:50:04;3.97;;;2.85;;
76656;SDS011;65576;47.714;9.414;2023-05-24T09:52:31;4.90;;;2.90;;
76656;SDS011;65576;47.714;9.414;2023-05-24T09:55:09;3.17;;;2.53;;
76656;SDS011;65576;47.714;9.414;2023-05-24T09:57:42;5.38;;;2.75;;
76656;SDS011;65576;47.714;9.414;2023-05-24T10:00:08;6.72;;;2.22;;
76656;SDS011;65576;47.714;9.414;2023-05-24T10:02:41;13.80;;;3.97;;
76656;SDS011;65576;47.714;9.414;2023-05-24T10:05:08;4.93;;;3.40;;
76656;SDS011;65576;47.714;9.414;2023-05-24T10:07:35;7.07;;;4.10;;
76656;SDS011;65576;47.714;9.414;2023-05-24T10:10:01;8.50;;;3.65;;
76656;SDS011;65576;47.714;9.414;2023-05-24T10:12:28;5.63;;;3.70;;
76656;SDS011;65576;47.714;9.414;2023-05-24T10:14:55;5.35;;;3.65;;
76656;SDS011;65576;47.714;9.414;2023-05-24T10:17:23;6.38;;;3.10;;
76656;SDS011;65576;47.714;9.414;2023-05-24T10:19:51;12.80;;;4.57;;
76656;SDS011;65576;47.714;9.414;2023-05-24T10:22:17;12.35;;;3.80;;
76656;SDS011;65576;47.714;9.414;2023-05-24T10:24:46;7.07;;;5.05;;
76656;SDS011;65576;47.714;9.414;2023-05-24T10:27:13;6.25;;;3.78;;
76656;SDS011;65576;47.714;9.414;2023-05-24T10:32:13;6.65;;;3.85;;
76656;SDS011;65576;47.714;9.414;2023-05-24T10:34:39;6.95;;;3.33;;
76656;SDS011;65576;47.714;9.414;2023-05-24T10:37:06;10.73;;;3.33;;
76656;SDS011;65576;47.714;9.414;2023-05-24T10:39:33;5.07;;;3.25;;
76656;SDS011;65576;47.714;9.414;2023-05-24T10:42:05;3.80;;;2.88;;
76656;SDS011;65576;47.714;9.414;2023-05-24T10:44:31;9.43;;;3.35;;
76656;SDS011;65576;47.714;9.414;2023-05-24T10:47:06;5.22;;;2.80;;
76656;SDS011;65576;47.714;9.414;2023-05-24T10:49:32;8.95;;;3.63;;
76656;SDS011;65576;47.714;9.414;2023-05-24T10:52:01;7.93;;;2.90;;
76656;SDS011;65576;47.714;9.414;2023-05-24T10:54:30;8.02;;;3.60;;
76656;SDS011;65576;47.714;9.414;2023-05-24T10:56:59;5.95;;;3.55;;
76656;SDS011;65576;47.714;9.414;2023-05-24T10:59:28;5.15;;;3.33;;
76656;SDS011;65576;47.714;9.414;2023-05-24T11:01:58;5.50;;;2.83;;
76656;SDS011;65576;47.714;9.414;2023-05-24T11:04:25;7.10;;;3.22;;
76656;SDS011;65576;47.714;9.414;2023-05-24T11:07:01;5.28;;;3.30;;
76656;SDS011;65576;47.714;9.414;2023-05-24T11:09:31;9.05;;;2.70;;
76656;SDS011;65576;47.714;9.414;2023-05-24T11:12:07;7.00;;;3.22;;
76656;SDS011;65576;47.714;9.414;2023-05-24T11:14:36;5.18;;;3.20;;
76656;SDS011;65576;47.714;9.414;2023-05-24T11:17:06;8.40;;;3.30;;
76656;SDS011;65576;47.714;9.414;2023-05-24T11:19:33;7.63;;;3.42;;
76656;SDS011;65576;47.714;9.414;2023-05-24T11:22:00;9.10;;;3.38;;
76656;SDS011;65576;47.714;9.414;2023-05-24T11:24:28;8.40;;;3.15;;
76656;SDS011;65576;47.714;9.414;2023-05-24T11:26:53;6.20;;;3.30;;
76656;SDS011;65576;47.714;9.414;2023-05-24T11:29:20;4.90;;;2.55;;
76656;SDS011;65576;47.714;9.414;2023-05-24T11:31:56;6.47;;;3.22;;
76656;SDS011;65576;47.714;9.414;2023-05-24T11:34:27;8.63;;;3.80;;
76656;SDS011;65576;47.714;9.414;2023-05-24T11:36:53;4.80;;;2.60;;
76656;SDS011;65576;47.714;9.414;2023-05-24T11:39:19;5.53;;;3.22;;
76656;SDS011;65576;47.714;9.414;2023-05-24T11:41:44;6.57;;;3.75;;
76656;SDS011;65576;47.714;9.414;2023-05-24T11:44:11;4.72;;;3.20;;
76656;SDS011;65576;47.714;9.414;2023-05-24T11:46:41;6.15;;;3.47;;
76656;SDS011;65576;47.714;9.414;2023-05-24T11:49:10;4.63;;;3.15;;
76656;SDS011;65576;47.714;9.414;2023-05-24T11:51:36;7.13;;;3.30;;
76656;SDS011;65576;47.714;9.414;2023-05-24T11:54:02;8.65;;;3.63;;
76656;SDS011;65576;47.714;9.414;2023-05-24T11:56:28;11.13;;;3.58;;
76656;SDS011;65576;47.714;9.414;2023-05-24T12:01:39;8.27;;;3.55;;
76656;SDS011;65576;47.714;9.414;2023-05-24T12:04:05;11.82;;;3.78;;
76656;SDS011;65576;47.714;9.414;2023-05-24T12:06:34;7.53;;;4.13;;
76656;SDS011;65576;47.714;9.414;2023-05-24T12:09:03;5.32;;;3.20;;
76656;SDS011;65576;47.714;9.414;2023-05-24T12:11:32;5.93;;;3.65;;
76656;SDS011;65576;47.714;9.414;2023-05-24T12:13:58;4.78;;;3.35;;
76656;SDS011;65576;47.714;9.414;2023-05-24T12:16:23;4.53;;;3.35;;
76656;SDS011;65576;47.714;9.414;2023-05-24T12:18:50;5.78;;;3.95;;
76656;SDS011;65576;47.714;9.414;2023-05-24T12:21:16;7.13;;;3.90;;
76656;SDS011;65576;47.714;9.414;2023-05-24T12:23:42;8.35;;;3.42;;
76656;SDS011;65576;47.714;9.414;2023-05-24T12:26:07;7.38;;;3.72;;
76656;SDS011;65576;47.714;9.414;2023-05-24T12:28:33;8.73;;;3.33;;
76656;SDS011;65576;47.714;9.414;2023-05-24T12:31:00;6.97;;;3.45;;
76656;SDS011;65576;47.714;9.414;2023-05-24T12:33:26;6.10;;;3.78;;
76656;SDS011;65576;47.714;9.414;2023-05-24T12:35:52;9.73;;;3.72;;
76656;SDS011;65576;47.714;9.414;2023-05-24T12:38:18;9.57;;;3.63;;
76656;SDS011;65576;47.714;9.414;2023-05-24T12:40:49;6.07;;;3.67;;
76656;SDS011;65576;47.714;9.414;2023-05-24T12:43:14;5.80;;;3.47;;
76656;SDS011;65576;47.714;9.414;2023-05-24T12:45:40;5.60;;;3.90;;
76656;SDS011;65576;47.714;9.414;2023-05-24T12:48:05;6.47;;;3.42;;
76656;SDS011;65576;47.714;9.414;2023-05-24T12:50:31;9.82;;;4.15;;
76656;SDS011;65576;47.714;9.414;2023-05-24T12:52:58;9.35;;;3.85;;
76656;SDS011;65576;47.714;9.414;2023-05-24T12:55:24;6.60;;;3.95;;
76656;SDS011;65576;47.714;9.414;2023-05-24T12:57:51;10.23;;;3.53;;
76656;SDS011;65576;47.714;9.414;2023-05-24T13:00:22;11.35;;;3.65;;
76656;SDS011;65576;47.714;9.414;2023-05-24T13:02:48;11.13;;;4.15;;
76656;SDS011;65576;47.714;9.414;2023-05-24T13:05:14;5.00;;;3.50;;
76656;SDS011;65576;47.714;9.414;2023-05-24T13:07:41;8.18;;;3.25;;
76656;SDS011;65576;47.714;9.414;2023-05-24T13:10:07;6.47;;;3.40;;
76656;SDS011;65576;47.714;9.414;2023-05-24T13:12:33;6.28;;;3.72;;
76656;SDS011;65576;47.714;9.414;2023-05-24T13:14:59;10.48;;;4.05;;
76656;SDS011;65576;47.714;9.414;2023-05-24T13:17:25;4.65;;;3.35;;
76656;SDS011;65576;47.714;9.414;2023-05-24T13:19:51;5.82;;;3.75;;
76656;SDS011;65576;47.714;9.414;2023-05-24T13:22:16;6.68;;;3.55;;
76656;SDS011;65576;47.714;9.414;2023-05-24T13:24:41;7.32;;;3.50;;
76656;SDS011;65576;47.714;9.414;2023-05-24T13:27:07;9.95;;;3.55;;
76656;SDS011;65576;47.714;9.414;2023-05-24T13:29:32;8.00;;;3.95;;
76656;SDS011;65576;47.714;9.414;2023-05-24T13:31:58;5.10;;;3.38;;
76656;SDS011;65576;47.714;9.414;2023-05-24T13:34:23;6.25;;;3.33;;
76656;SDS011;65576;47.714;9.414;2023-05-24T13:36:49;7.05;;;3.60;;
76656;SDS011;65576;47.714;9.414;2023-05-24T13:39:15;3.97;;;3.15;;
76656;SDS011;65576;47.714;9.414;2023-05-24T13:41:40;11.07;;;4.25;;
76656;SDS011;65576;47.714;9.414;2023-05-24T13:44:06;6.85;;;3.63;;
76656;SDS011;65576;47.714;9.414;2023-05-24T13:46:31;6.53;;;3.42;;
76656;SDS011;65576;47.714;9.414;2023-05-24T13:48:57;8.25;;;3.78;;
76656;SDS011;65576;47.714;9.414;2023-05-24T13:51:23;11.43;;;4.43;;
76656;SDS011;65576;47.714;9.414;2023-05-24T13:53:48;6.13;;;4.18;;
76656;SDS011;65576;47.714;9.414;2023-05-24T13:56:14;7.00;;;3.58;;
76656;SDS011;65576;47.714;9.414;2023-05-24T13:58:40;5.97;;;3.85;;
76656;SDS011;65576;47.714;9.414;2023-05-24T14:01:06;7.95;;;3.58;;
76656;SDS011;65576;47.714;9.414;2023-05-24T14:03:31;7.85;;;4.05;;
76656;SDS011;65576;47.714;9.414;2023-05-24T14:05:57;17.10;;;4.43;;
76656;SDS011;65576;47.714;9.414;2023-05-24T14:08:22;7.40;;;3.47;;
76656;SDS011;65576;47.714;9.414;2023-05-24T14:10:47;5.80;;;4.03;;
76656;SDS011;65576;47.714;9.414;2023-05-24T14:13:14;7.50;;;3.78;;
76656;SDS011;65576;47.714;9.414;2023-05-24T14:15:40;11.93;;;4.25;;
76656;SDS011;65576;47.714;9.414;2023-05-24T14:18:05;6.13;;;3.88;;
76656;SDS011;65576;47.714;9.414;2023-05-24T14:20:32;10.77;;;3.28;;
76656;SDS011;65576;47.714;9.414;2023-05-24T14:22:58;4.20;;;3.30;;
76656;SDS011;65576;47.714;9.414;2023-05-24T14:25:23;6.85;;;3.40;;
76656;SDS011;65576;47.714;9.414;2023-05-24T14:27:48;6.43;;;3.28;;
76656;SDS011;65576;47.714;9.414;2023-05-24T14:30:14;5.18;;;3.33;;
76656;SDS011;65576;47.714;9.414;2023-05-24T14:32:39;15.15;;;4.32;;
76656;SDS011;65576;47.714;9.414;2023-05-24T14:35:05;6.32;;;3.50;;
76656;SDS011;65576;47.714;9.414;2023-05-24T14:37:30;5.60;;;3.47;;
76656;SDS011;65576;47.714;9.414;2023-05-24T14:39:55;6.30;;;3.50;;
76656;SDS011;65576;47.714;9.414;2023-05-24T14:42:21;7.47;;;3.63;;
76656;SDS011;65576;47.714;9.414;2023-05-24T14:44:46;7.78;;;3.80;;
76656;SDS011;65576;47.714;9.414;2023-05-24T14:47:11;6.90;;;3.55;;
76656;SDS011;65576;47.714;9.414;2023-05-24T14:49:37;6.00;;;3.58;;
76656;SDS011;65576;47.714;9.414;2023-05-24T14:52:02;8.55;;;4.05;;
76656;SDS011;65576;47.714;9.414;2023-05-24T14:54:27;3.88;;;2.95;;
76656;SDS011;65576;47.714;9.414;2023-05-24T14:56:53;12.25;;;3.88;;